sensor_id;sensor_type;location;lat;lon;timestamp;P1;durP1;ratioP1;P2;durP2;ratioP2
43124;SDS011;49182;50.788;7.318;2023-02-15T00:00:55;25.80;;;11.48;;
43124;SDS011;49182;50.788;7.318;2023-02-15T00:03:31;25.90;;;11.63;;
43124;SDS011;49182;50.788;7.318;2023-02-15T00:05:58;27.30;;;11.05;;
43124;SDS011;49182;50.788;7.318;2023-02-15T00:08:25;28.77;;;12.10;;
43124;SDS011;49182;50.788;7.318;2023-02-15T00:10:53;26.10;;;11.15;;
43124;SDS011;49182;50.788;7.318;2023-02-15T00:13:29;26.35;;;11.25;;
43124;SDS011;49182;50.788;7.318;2023-02-15T00:15:59;26.70;;;12.43;;
43124;SDS011;49182;50.788;7.318;2023-02-15T00:18:27;24.73;;;11.10;;
43124;SDS011;49182;50.788;7.318;2023-02-15T00:20:54;32.47;;;13.88;;
43124;SDS011;49182;50.788;7.318;2023-02-15T00:23:20;26.13;;;11.90;;
43124;SDS011;49182;50.788;7.318;2023-02-15T00:25:47;29.17;;;11.98;;
43124;SDS011;49182;50.788;7.318;2023-02-15T00:28:15;24.75;;;12.18;;
43124;SDS011;49182;50.788;7.318;2023-02-15T00:30:41;26.98;;;12.50;;
43124;SDS011;49182;50.788;7.318;2023-02-15T00:33:08;27.88;;;11.98;;
43124;SDS011;49182;50.788;7.318;2023-02-15T00:35:35;32.28;;;12.65;;
43124;SDS011;49182;50.788;7.318;2023-02-15T00:38:01;28.55;;;11.35;;
43124;SDS011;49182;50.788;7.318;2023-02-15T00:40:29;25.30;;;11.05;;
43124;SDS011;49182;50.788;7.318;2023-02-15T00:42:55;25.15;;;11.85;;
43124;SDS011;49182;50.788;7.318;2023-02-15T00:45:23;26.80;;;11.15;;
43124;SDS011;49182;50.788;7.318;2023-02-15T00:47:50;28.40;;;12.52;;
43124;SDS011;49182;50.788;7.318;2023-02-15T00:50:17;27.65;;;12.27;;
43124;SDS011;49182;50.788;7.318;2023-02-15T00:52:45;29.85;;;11.60;;
43124;SDS011;49182;50.788;7.318;2023-02-15T00:55:11;27.73;;;11.23;;
43124;SDS011;49182;50.788;7.318;2023-02-15T00:57:38;28.52;;;11.48;;
43124;SDS011;49182;50.788;7.318;2023-02-15T01:00:05;26.85;;;11.40;;
43124;SDS011;49182;50.788;7.318;2023-02-15T01:02:34;25.88;;;11.23;;
43124;SDS011;49182;50.788;7.318;2023-02-15T01:05:01;30.83;;;13.75;;
43124;SDS011;49182;50.788;7.318;2023-02-15T01:07:27;29.92;;;12.75;;
43124;SDS011;49182;50.788;7.318;2023-02-15T01:09:54;34.60;;;13.75;;
43124;SDS011;49182;50.788;7.318;2023-02-15T01:12:21;29.17;;;13.65;;
43124;SDS011;49182;50.788;7.318;2023-02-15T01:14:47;30.42;;;13.65;;
43124;SDS011;49182;50.788;7.318;2023-02-15T01:17:14;27.70;;;11.52;;
43124;SDS011;49182;50.788;7.318;2023-02-15T01:19:42;26.63;;;12.63;;
43124;SDS011;49182;50.788;7.318;2023-02-15T01:22:08;29.35;;;12.23;;
43124;SDS011;49182;50.788;7.318;2023-02-15T01:24:35;32.95;;;12.82;;
43124;SDS011;49182;50.788;7.318;2023-02-15T01:27:01;27.02;;;11.55;;
43124;SDS011;49182;50.788;7.318;2023-02-15T01:29:28;29.02;;;12.73;;
43124;SDS011;49182;50.788;7.318;2023-02-15T01:31:55;31.02;;;12.52;;
43124;SDS011;49182;50.788;7.318;2023-02-15T01:34:21;25.65;;;12.18;;
43124;SDS011;49182;50.788;7.318;2023-02-15T01:36:49;28.70;;;11.73;;
43124;SDS011;49182;50.788;7.318;2023-02-15T01:39:16;30.50;;;13.57;;
43124;SDS011;49182;50.788;7.318;2023-02-15T01:41:42;29.58;;;11.65;;
43124;SDS011;49182;50.788;7.318;2023-02-15T01:47:19;31.80;;;12.85;;
43124;SDS011;49182;50.788;7.318;2023-02-15T01:49:49;30.35;;;12.75;;
43124;SDS011;49182;50.788;7.318;2023-02-15T01:52:29;25.98;;;11.52;;
43124;SDS011;49182;50.788;7.318;2023-02-15T01:54:56;27.15;;;11.82;;
43124;SDS011;49182;50.788;7.318;2023-02-15T01:57:23;32.35;;;12.45;;
43124;SDS011;49182;50.788;7.318;2023-02-15T01:59:54;30.70;;;12.52;;
43124;SDS011;49182;50.788;7.318;2023-02-15T02:02:25;29.98;;;12.98;;
43124;SDS011;49182;50.788;7.318;2023-02-15T02:04:53;30.17;;;12.63;;
43124;SDS011;49182;50.788;7.318;2023-02-15T02:07:23;30.08;;;12.80;;
43124;SDS011;49182;50.788;7.318;2023-02-15T02:09:56;32.60;;;11.95;;
43124;SDS011;49182;50.788;7.318;2023-02-15T02:12:22;30.00;;;13.25;;
43124;SDS011;49182;50.788;7.318;2023-02-15T02:14:51;27.48;;;13.05;;
43124;SDS011;49182;50.788;7.318;2023-02-15T02:17:22;34.92;;;14.20;;
43124;SDS011;49182;50.788;7.318;2023-02-15T02:20:06;30.60;;;12.43;;
43124;SDS011;49182;50.788;7.318;2023-02-15T02:22:56;32.55;;;12.55;;
43124;SDS011;49182;50.788;7.318;2023-02-15T02:25:48;32.30;;;13.55;;
43124;SDS011;49182;50.788;7.318;2023-02-15T02:28:49;29.75;;;13.18;;
43124;SDS011;49182;50.788;7.318;2023-02-15T02:31:47;29.30;;;11.25;;
43124;SDS011;49182;50.788;7.318;2023-02-15T02:34:35;27.45;;;11.73;;
43124;SDS011;49182;50.788;7.318;2023-02-15T02:37:09;28.63;;;11.80;;
43124;SDS011;49182;50.788;7.318;2023-02-15T02:39:46;25.63;;;12.25;;
43124;SDS011;49182;50.788;7.318;2023-02-15T02:42:22;30.13;;;11.88;;
43124;SDS011;49182;50.788;7.318;2023-02-15T02:44:56;28.73;;;12.10;;
43124;SDS011;49182;50.788;7.318;2023-02-15T02:47:29;31.55;;;12.20;;
43124;SDS011;49182;50.788;7.318;2023-02-15T02:50:01;31.35;;;12.98;;
43124;SDS011;49182;50.788;7.318;2023-02-15T02:52:34;33.03;;;13.35;;
43124;SDS011;49182;50.788;7.318;2023-02-15T02:55:03;27.85;;;11.80;;
43124;SDS011;49182;50.788;7.318;2023-02-15T02:57:32;30.38;;;12.00;;
43124;SDS011;49182;50.788;7.318;2023-02-15T03:00:02;25.08;;;11.32;;
43124;SDS011;49182;50.788;7.318;2023-02-15T03:02:33;29.00;;;11.15;;
43124;SDS011;49182;50.788;7.318;2023-02-15T03:05:06;30.70;;;11.48;;
43124;SDS011;49182;50.788;7.318;2023-02-15T03:07:37;30.20;;;12.35;;
43124;SDS011;49182;50.788;7.318;2023-02-15T03:10:06;28.90;;;11.82;;
43124;SDS011;49182;50.788;7.318;2023-02-15T03:12:35;29.88;;;13.13;;
43124;SDS011;49182;50.788;7.318;2023-02-15T03:15:04;34.00;;;12.35;;
43124;SDS011;49182;50.788;7.318;2023-02-15T03:17:36;28.83;;;12.23;;
43124;SDS011;49182;50.788;7.318;2023-02-15T03:20:09;31.13;;;12.63;;
43124;SDS011;49182;50.788;7.318;2023-02-15T03:22:42;29.80;;;12.23;;
43124;SDS011;49182;50.788;7.318;2023-02-15T03:25:15;32.30;;;12.95;;
43124;SDS011;49182;50.788;7.318;2023-02-15T03:27:47;32.40;;;12.70;;
43124;SDS011;49182;50.788;7.318;2023-02-15T03:30:19;29.10;;;12.98;;
43124;SDS011;49182;50.788;7.318;2023-02-15T03:32:47;30.98;;;12.43;;
43124;SDS011;49182;50.788;7.318;2023-02-15T03:35:17;29.95;;;11.85;;
43124;SDS011;49182;50.788;7.318;2023-02-15T03:37:48;31.23;;;12.10;;
43124;SDS011;49182;50.788;7.318;2023-02-15T03:40:21;29.15;;;11.60;;
43124;SDS011;49182;50.788;7.318;2023-02-15T03:42:53;29.27;;;12.82;;
43124;SDS011;49182;50.788;7.318;2023-02-15T03:45:27;26.83;;;11.70;;
43124;SDS011;49182;50.788;7.318;2023-02-15T03:47:57;34.38;;;12.30;;
43124;SDS011;49182;50.788;7.318;2023-02-15T03:50:29;29.60;;;11.95;;
43124;SDS011;49182;50.788;7.318;2023-02-15T03:52:57;28.58;;;12.65;;
43124;SDS011;49182;50.788;7.318;2023-02-15T03:55:27;25.65;;;10.52;;
43124;SDS011;49182;50.788;7.318;2023-02-15T03:57:54;28.15;;;10.88;;
43124;SDS011;49182;50.788;7.318;2023-02-15T04:00:22;31.38;;;13.02;;
43124;SDS011;49182;50.788;7.318;2023-02-15T04:02:55;28.25;;;12.20;;
43124;SDS011;49182;50.788;7.318;2023-02-15T04:05:36;23.58;;;11.65;;
43124;SDS011;49182;50.788;7.318;2023-02-15T04:08:03;35.15;;;12.85;;
43124;SDS011;49182;50.788;7.318;2023-02-15T04:10:30;27.83;;;11.18;;
43124;SDS011;49182;50.788;7.318;2023-02-15T04:12:56;30.85;;;11.70;;
43124;SDS011;49182;50.788;7.318;2023-02-15T04:15:23;29.42;;;12.50;;
43124;SDS011;49182;50.788;7.318;2023-02-15T04:17:49;28.02;;;11.00;;
43124;SDS011;49182;50.788;7.318;2023-02-15T04:20:16;26.70;;;11.45;;
43124;SDS011;49182;50.788;7.318;2023-02-15T04:22:44;29.67;;;11.55;;
43124;SDS011;49182;50.788;7.318;2023-02-15T04:25:11;29.30;;;12.60;;
43124;SDS011;49182;50.788;7.318;2023-02-15T04:27:37;25.33;;;10.75;;
43124;SDS011;49182;50.788;7.318;2023-02-15T04:30:05;27.27;;;12.27;;
43124;SDS011;49182;50.788;7.318;2023-02-15T04:32:33;28.65;;;12.25;;
43124;SDS011;49182;50.788;7.318;2023-02-15T04:35:00;26.70;;;11.57;;
43124;SDS011;49182;50.788;7.318;2023-02-15T04:37:27;27.30;;;12.50;;
43124;SDS011;49182;50.788;7.318;2023-02-15T04:39:55;28.05;;;11.30;;
43124;SDS011;49182;50.788;7.318;2023-02-15T04:42:21;25.15;;;10.80;;
43124;SDS011;49182;50.788;7.318;2023-02-15T04:44:48;30.08;;;11.75;;
43124;SDS011;49182;50.788;7.318;2023-02-15T04:47:14;28.98;;;11.52;;
43124;SDS011;49182;50.788;7.318;2023-02-15T04:49:41;32.15;;;12.00;;
43124;SDS011;49182;50.788;7.318;2023-02-15T04:52:08;31.63;;;12.13;;
43124;SDS011;49182;50.788;7.318;2023-02-15T04:54:34;29.85;;;12.20;;
43124;SDS011;49182;50.788;7.318;2023-02-15T04:57:03;31.13;;;11.27;;
43124;SDS011;49182;50.788;7.318;2023-02-15T04:59:29;31.40;;;12.32;;
43124;SDS011;49182;50.788;7.318;2023-02-15T05:01:56;26.48;;;11.55;;
43124;SDS011;49182;50.788;7.318;2023-02-15T05:04:23;29.73;;;12.07;;
43124;SDS011;49182;50.788;7.318;2023-02-15T05:06:49;26.65;;;12.15;;
43124;SDS011;49182;50.788;7.318;2023-02-15T05:09:16;24.95;;;10.95;;
43124;SDS011;49182;50.788;7.318;2023-02-15T05:11:43;26.08;;;11.27;;
43124;SDS011;49182;50.788;7.318;2023-02-15T05:14:11;29.83;;;11.73;;
43124;SDS011;49182;50.788;7.318;2023-02-15T05:16:38;27.75;;;11.52;;
43124;SDS011;49182;50.788;7.318;2023-02-15T05:19:05;30.42;;;12.48;;
43124;SDS011;49182;50.788;7.318;2023-02-15T05:21:32;26.15;;;10.75;;
43124;SDS011;49182;50.788;7.318;2023-02-15T05:23:59;26.95;;;11.95;;
43124;SDS011;49182;50.788;7.318;2023-02-15T05:26:26;30.25;;;12.60;;
43124;SDS011;49182;50.788;7.318;2023-02-15T05:28:52;30.50;;;12.57;;
43124;SDS011;49182;50.788;7.318;2023-02-15T05:31:20;29.08;;;11.85;;
43124;SDS011;49182;50.788;7.318;2023-02-15T05:33:47;24.30;;;10.80;;
43124;SDS011;49182;50.788;7.318;2023-02-15T05:36:14;28.48;;;12.10;;
43124;SDS011;49182;50.788;7.318;2023-02-15T05:38:40;31.77;;;13.27;;
43124;SDS011;49182;50.788;7.318;2023-02-15T05:41:07;27.48;;;12.00;;
43124;SDS011;49182;50.788;7.318;2023-02-15T05:43:35;27.60;;;12.32;;
43124;SDS011;49182;50.788;7.318;2023-02-15T05:46:03;29.83;;;13.07;;
43124;SDS011;49182;50.788;7.318;2023-02-15T05:48:32;29.65;;;11.00;;
43124;SDS011;49182;50.788;7.318;2023-02-15T05:51:00;30.55;;;12.60;;
43124;SDS011;49182;50.788;7.318;2023-02-15T05:53:28;31.42;;;12.15;;
43124;SDS011;49182;50.788;7.318;2023-02-15T05:55:56;29.95;;;11.48;;
43124;SDS011;49182;50.788;7.318;2023-02-15T05:58:23;26.20;;;11.63;;
43124;SDS011;49182;50.788;7.318;2023-02-15T06:00:49;28.73;;;11.75;;
43124;SDS011;49182;50.788;7.318;2023-02-15T06:03:16;28.60;;;11.73;;
43124;SDS011;49182;50.788;7.318;2023-02-15T06:05:44;32.75;;;13.85;;
43124;SDS011;49182;50.788;7.318;2023-02-15T06:08:11;33.47;;;13.68;;
43124;SDS011;49182;50.788;7.318;2023-02-15T06:10:38;32.42;;;13.30;;
43124;SDS011;49182;50.788;7.318;2023-02-15T06:13:04;32.50;;;13.75;;
43124;SDS011;49182;50.788;7.318;2023-02-15T06:15:31;27.20;;;12.20;;
43124;SDS011;49182;50.788;7.318;2023-02-15T06:17:58;29.98;;;12.48;;
43124;SDS011;49182;50.788;7.318;2023-02-15T06:20:24;27.88;;;11.68;;
43124;SDS011;49182;50.788;7.318;2023-02-15T06:22:52;27.00;;;10.68;;
43124;SDS011;49182;50.788;7.318;2023-02-15T06:25:19;28.92;;;11.20;;
43124;SDS011;49182;50.788;7.318;2023-02-15T06:27:45;29.98;;;13.57;;
43124;SDS011;49182;50.788;7.318;2023-02-15T06:30:12;28.58;;;12.30;;
43124;SDS011;49182;50.788;7.318;2023-02-15T06:32:39;32.55;;;13.73;;
43124;SDS011;49182;50.788;7.318;2023-02-15T06:35:06;28.98;;;12.40;;
43124;SDS011;49182;50.788;7.318;2023-02-15T06:37:35;28.30;;;10.82;;
43124;SDS011;49182;50.788;7.318;2023-02-15T06:40:04;26.50;;;11.90;;
43124;SDS011;49182;50.788;7.318;2023-02-15T06:42:31;30.20;;;11.68;;
43124;SDS011;49182;50.788;7.318;2023-02-15T06:44:58;27.80;;;11.65;;
43124;SDS011;49182;50.788;7.318;2023-02-15T06:47:25;27.67;;;11.52;;
43124;SDS011;49182;50.788;7.318;2023-02-15T06:49:51;29.17;;;12.02;;
43124;SDS011;49182;50.788;7.318;2023-02-15T06:52:19;25.30;;;11.82;;
43124;SDS011;49182;50.788;7.318;2023-02-15T06:54:46;23.15;;;11.23;;
43124;SDS011;49182;50.788;7.318;2023-02-15T06:57:13;29.90;;;12.70;;
43124;SDS011;49182;50.788;7.318;2023-02-15T06:59:40;33.20;;;13.18;;
43124;SDS011;49182;50.788;7.318;2023-02-15T07:02:07;30.17;;;12.88;;
43124;SDS011;49182;50.788;7.318;2023-02-15T07:04:34;30.20;;;11.85;;
43124;SDS011;49182;50.788;7.318;2023-02-15T07:07:01;26.52;;;11.10;;
43124;SDS011;49182;50.788;7.318;2023-02-15T07:09:27;26.75;;;12.00;;
43124;SDS011;49182;50.788;7.318;2023-02-15T07:11:54;27.27;;;10.93;;
43124;SDS011;49182;50.788;7.318;2023-02-15T07:14:22;31.90;;;11.55;;
43124;SDS011;49182;50.788;7.318;2023-02-15T07:16:48;29.05;;;11.48;;
43124;SDS011;49182;50.788;7.318;2023-02-15T07:19:16;29.00;;;12.75;;
43124;SDS011;49182;50.788;7.318;2023-02-15T07:21:42;29.38;;;12.93;;
43124;SDS011;49182;50.788;7.318;2023-02-15T07:24:09;27.90;;;11.00;;
43124;SDS011;49182;50.788;7.318;2023-02-15T07:26:35;26.10;;;11.15;;
43124;SDS011;49182;50.788;7.318;2023-02-15T07:29:02;27.88;;;11.40;;
43124;SDS011;49182;50.788;7.318;2023-02-15T07:31:30;26.42;;;12.27;;
43124;SDS011;49182;50.788;7.318;2023-02-15T07:33:56;31.17;;;12.68;;
43124;SDS011;49182;50.788;7.318;2023-02-15T07:36:23;33.40;;;14.05;;
43124;SDS011;49182;50.788;7.318;2023-02-15T07:38:50;35.10;;;14.90;;
43124;SDS011;49182;50.788;7.318;2023-02-15T07:41:16;30.27;;;13.48;;
43124;SDS011;49182;50.788;7.318;2023-02-15T07:43:43;30.48;;;12.07;;
43124;SDS011;49182;50.788;7.318;2023-02-15T07:46:11;28.20;;;12.32;;
43124;SDS011;49182;50.788;7.318;2023-02-15T07:48:41;27.90;;;11.65;;
43124;SDS011;49182;50.788;7.318;2023-02-15T07:51:09;27.70;;;12.50;;
43124;SDS011;49182;50.788;7.318;2023-02-15T07:53:37;26.05;;;12.82;;
43124;SDS011;49182;50.788;7.318;2023-02-15T07:56:05;29.63;;;12.23;;
43124;SDS011;49182;50.788;7.318;2023-02-15T07:58:33;26.83;;;11.77;;
43124;SDS011;49182;50.788;7.318;2023-02-15T08:01:00;28.77;;;12.80;;
43124;SDS011;49182;50.788;7.318;2023-02-15T08:03:26;30.23;;;11.98;;
43124;SDS011;49182;50.788;7.318;2023-02-15T08:05:56;23.75;;;10.88;;
43124;SDS011;49182;50.788;7.318;2023-02-15T08:08:25;24.45;;;11.05;;
43124;SDS011;49182;50.788;7.318;2023-02-15T08:10:52;28.73;;;11.52;;
43124;SDS011;49182;50.788;7.318;2023-02-15T08:13:18;23.52;;;10.60;;
43124;SDS011;49182;50.788;7.318;2023-02-15T08:15:47;25.85;;;11.25;;
43124;SDS011;49182;50.788;7.318;2023-02-15T08:18:15;26.73;;;11.55;;
43124;SDS011;49182;50.788;7.318;2023-02-15T08:20:42;28.15;;;11.38;;
43124;SDS011;49182;50.788;7.318;2023-02-15T08:23:10;26.20;;;10.45;;
43124;SDS011;49182;50.788;7.318;2023-02-15T08:25:36;21.55;;;9.32;;
43124;SDS011;49182;50.788;7.318;2023-02-15T08:28:03;25.92;;;11.43;;
43124;SDS011;49182;50.788;7.318;2023-02-15T08:30:30;22.58;;;10.88;;
43124;SDS011;49182;50.788;7.318;2023-02-15T08:32:56;24.45;;;10.65;;
43124;SDS011;49182;50.788;7.318;2023-02-15T08:35:23;23.40;;;10.57;;
43124;SDS011;49182;50.788;7.318;2023-02-15T08:37:50;23.35;;;10.88;;
43124;SDS011;49182;50.788;7.318;2023-02-15T08:40:18;19.95;;;10.45;;
43124;SDS011;49182;50.788;7.318;2023-02-15T08:42:45;26.50;;;11.07;;
43124;SDS011;49182;50.788;7.318;2023-02-15T08:45:12;22.05;;;10.77;;
43124;SDS011;49182;50.788;7.318;2023-02-15T08:47:38;22.83;;;10.82;;
43124;SDS011;49182;50.788;7.318;2023-02-15T08:50:05;22.65;;;10.07;;
43124;SDS011;49182;50.788;7.318;2023-02-15T08:52:32;25.17;;;11.75;;
43124;SDS011;49182;50.788;7.318;2023-02-15T08:54:59;23.27;;;10.48;;
43124;SDS011;49182;50.788;7.318;2023-02-15T08:57:27;25.15;;;10.73;;
43124;SDS011;49182;50.788;7.318;2023-02-15T08:59:53;20.60;;;10.63;;
43124;SDS011;49182;50.788;7.318;2023-02-15T09:02:20;19.27;;;9.40;;
43124;SDS011;49182;50.788;7.318;2023-02-15T09:04:46;22.80;;;10.85;;
43124;SDS011;49182;50.788;7.318;2023-02-15T09:07:13;22.83;;;11.07;;
43124;SDS011;49182;50.788;7.318;2023-02-15T09:09:39;18.35;;;9.07;;
43124;SDS011;49182;50.788;7.318;2023-02-15T09:12:06;20.23;;;9.93;;
43124;SDS011;49182;50.788;7.318;2023-02-15T09:14:34;18.77;;;9.20;;
43124;SDS011;49182;50.788;7.318;2023-02-15T09:17:01;17.42;;;9.23;;
43124;SDS011;49182;50.788;7.318;2023-02-15T09:19:27;20.48;;;9.65;;
43124;SDS011;49182;50.788;7.318;2023-02-15T09:21:54;18.83;;;9.50;;
43124;SDS011;49182;50.788;7.318;2023-02-15T09:24:21;19.88;;;9.27;;
43124;SDS011;49182;50.788;7.318;2023-02-15T09:26:48;23.00;;;10.13;;
43124;SDS011;49182;50.788;7.318;2023-02-15T09:29:15;19.40;;;9.75;;
43124;SDS011;49182;50.788;7.318;2023-02-15T09:31:45;19.60;;;9.40;;
43124;SDS011;49182;50.788;7.318;2023-02-15T09:34:13;19.92;;;9.13;;
43124;SDS011;49182;50.788;7.318;2023-02-15T09:36:41;19.90;;;9.65;;
43124;SDS011;49182;50.788;7.318;2023-02-15T09:39:09;23.20;;;10.50;;
43124;SDS011;49182;50.788;7.318;2023-02-15T09:41:41;20.13;;;9.68;;
43124;SDS011;49182;50.788;7.318;2023-02-15T09:44:22;20.60;;;9.07;;
43124;SDS011;49182;50.788;7.318;2023-02-15T09:47:04;18.88;;;9.32;;
43124;SDS011;49182;50.788;7.318;2023-02-15T09:49:45;19.90;;;8.73;;
43124;SDS011;49182;50.788;7.318;2023-02-15T09:55:24;18.20;;;9.32;;
43124;SDS011;49182;50.788;7.318;2023-02-15T09:58:01;18.90;;;8.73;;
43124;SDS011;49182;50.788;7.318;2023-02-15T10:00:36;17.65;;;9.55;;
43124;SDS011;49182;50.788;7.318;2023-02-15T10:03:23;20.58;;;9.30;;
43124;SDS011;49182;50.788;7.318;2023-02-15T10:06:04;18.35;;;8.90;;
43124;SDS011;49182;50.788;7.318;2023-02-15T10:08:53;18.77;;;9.27;;
43124;SDS011;49182;50.788;7.318;2023-02-15T10:11:31;20.30;;;10.50;;
43124;SDS011;49182;50.788;7.318;2023-02-15T10:14:24;20.00;;;10.18;;
43124;SDS011;49182;50.788;7.318;2023-02-15T10:19:38;20.42;;;9.77;;
43124;SDS011;49182;50.788;7.318;2023-02-15T10:22:15;18.88;;;9.73;;
43124;SDS011;49182;50.788;7.318;2023-02-15T10:24:58;21.75;;;9.55;;
43124;SDS011;49182;50.788;7.318;2023-02-15T10:27:35;22.33;;;10.10;;
43124;SDS011;49182;50.788;7.318;2023-02-15T10:30:10;18.63;;;8.82;;
43124;SDS011;49182;50.788;7.318;2023-02-15T10:32:39;21.95;;;9.55;;
43124;SDS011;49182;50.788;7.318;2023-02-15T10:35:14;17.85;;;9.15;;
43124;SDS011;49182;50.788;7.318;2023-02-15T10:38:01;20.33;;;9.20;;
43124;SDS011;49182;50.788;7.318;2023-02-15T10:40:39;17.13;;;8.77;;
43124;SDS011;49182;50.788;7.318;2023-02-15T10:43:20;20.20;;;9.82;;
43124;SDS011;49182;50.788;7.318;2023-02-15T10:45:58;18.20;;;9.23;;
43124;SDS011;49182;50.788;7.318;2023-02-15T10:48:49;17.67;;;10.00;;
43124;SDS011;49182;50.788;7.318;2023-02-15T10:51:33;19.52;;;10.35;;
43124;SDS011;49182;50.788;7.318;2023-02-15T10:54:14;19.77;;;9.77;;
43124;SDS011;49182;50.788;7.318;2023-02-15T10:56:50;18.10;;;9.00;;
43124;SDS011;49182;50.788;7.318;2023-02-15T10:59:38;19.15;;;9.93;;
43124;SDS011;49182;50.788;7.318;2023-02-15T11:02:18;19.88;;;9.02;;
43124;SDS011;49182;50.788;7.318;2023-02-15T11:04:58;18.48;;;9.82;;
43124;SDS011;49182;50.788;7.318;2023-02-15T11:07:37;18.83;;;10.02;;
43124;SDS011;49182;50.788;7.318;2023-02-15T11:10:11;19.15;;;9.85;;
43124;SDS011;49182;50.788;7.318;2023-02-15T11:12:49;20.40;;;9.90;;
43124;SDS011;49182;50.788;7.318;2023-02-15T11:15:17;21.48;;;10.40;;
43124;SDS011;49182;50.788;7.318;2023-02-15T11:17:52;18.42;;;9.68;;
43124;SDS011;49182;50.788;7.318;2023-02-15T11:20:25;18.00;;;9.52;;
43124;SDS011;49182;50.788;7.318;2023-02-15T11:22:58;19.98;;;10.60;;
43124;SDS011;49182;50.788;7.318;2023-02-15T11:25:29;18.33;;;10.35;;
43124;SDS011;49182;50.788;7.318;2023-02-15T11:27:58;19.10;;;9.80;;
43124;SDS011;49182;50.788;7.318;2023-02-15T11:30:27;20.67;;;10.32;;
43124;SDS011;49182;50.788;7.318;2023-02-15T11:33:12;18.73;;;9.70;;
43124;SDS011;49182;50.788;7.318;2023-02-15T11:35:43;20.38;;;10.07;;
43124;SDS011;49182;50.788;7.318;2023-02-15T11:38:18;19.92;;;10.00;;
43124;SDS011;49182;50.788;7.318;2023-02-15T11:40:48;21.03;;;10.57;;
43124;SDS011;49182;50.788;7.318;2023-02-15T11:43:16;19.70;;;10.02;;
43124;SDS011;49182;50.788;7.318;2023-02-15T11:45:48;18.05;;;9.95;;
43124;SDS011;49182;50.788;7.318;2023-02-15T11:48:15;19.70;;;9.68;;
43124;SDS011;49182;50.788;7.318;2023-02-15T11:50:42;18.90;;;9.88;;
43124;SDS011;49182;50.788;7.318;2023-02-15T11:53:11;19.45;;;10.30;;
43124;SDS011;49182;50.788;7.318;2023-02-15T11:55:43;18.20;;;9.88;;
43124;SDS011;49182;50.788;7.318;2023-02-15T11:58:14;19.83;;;10.98;;
43124;SDS011;49182;50.788;7.318;2023-02-15T12:00:50;18.55;;;9.27;;
43124;SDS011;49182;50.788;7.318;2023-02-15T12:03:21;19.45;;;9.93;;
43124;SDS011;49182;50.788;7.318;2023-02-15T12:05:52;18.23;;;9.02;;
43124;SDS011;49182;50.788;7.318;2023-02-15T12:08:22;19.88;;;9.95;;
43124;SDS011;49182;50.788;7.318;2023-02-15T12:10:57;17.77;;;9.52;;
43124;SDS011;49182;50.788;7.318;2023-02-15T12:13:27;18.00;;;9.80;;
43124;SDS011;49182;50.788;7.318;2023-02-15T12:15:55;19.90;;;10.23;;
43124;SDS011;49182;50.788;7.318;2023-02-15T12:18:31;16.65;;;9.55;;
43124;SDS011;49182;50.788;7.318;2023-02-15T12:21:02;18.33;;;9.57;;
43124;SDS011;49182;50.788;7.318;2023-02-15T12:23:31;19.52;;;10.00;;
43124;SDS011;49182;50.788;7.318;2023-02-15T12:26:00;18.50;;;10.25;;
43124;SDS011;49182;50.788;7.318;2023-02-15T12:28:30;18.52;;;9.70;;
43124;SDS011;49182;50.788;7.318;2023-02-15T12:31:00;17.35;;;9.38;;
43124;SDS011;49182;50.788;7.318;2023-02-15T12:33:30;18.23;;;10.00;;
43124;SDS011;49182;50.788;7.318;2023-02-15T12:36:03;18.25;;;10.27;;
43124;SDS011;49182;50.788;7.318;2023-02-15T12:38:36;18.70;;;9.90;;
43124;SDS011;49182;50.788;7.318;2023-02-15T12:41:05;19.60;;;10.60;;
43124;SDS011;49182;50.788;7.318;2023-02-15T12:44:02;21.05;;;9.57;;
43124;SDS011;49182;50.788;7.318;2023-02-15T12:46:30;18.70;;;9.75;;
43124;SDS011;49182;50.788;7.318;2023-02-15T12:49:07;18.55;;;10.13;;
43124;SDS011;49182;50.788;7.318;2023-02-15T12:51:46;18.48;;;9.55;;
43124;SDS011;49182;50.788;7.318;2023-02-15T12:54:15;18.23;;;9.35;;
43124;SDS011;49182;50.788;7.318;2023-02-15T12:56:50;18.00;;;9.45;;
43124;SDS011;49182;50.788;7.318;2023-02-15T12:59:17;17.08;;;9.98;;
43124;SDS011;49182;50.788;7.318;2023-02-15T13:01:49;18.40;;;9.95;;
43124;SDS011;49182;50.788;7.318;2023-02-15T13:04:19;17.42;;;10.00;;
43124;SDS011;49182;50.788;7.318;2023-02-15T13:06:51;16.35;;;9.98;;
43124;SDS011;49182;50.788;7.318;2023-02-15T13:09:20;20.45;;;9.90;;
43124;SDS011;49182;50.788;7.318;2023-02-15T13:11:52;18.90;;;10.05;;
43124;SDS011;49182;50.788;7.318;2023-02-15T13:14:19;18.67;;;10.68;;
43124;SDS011;49182;50.788;7.318;2023-02-15T13:16:48;19.55;;;9.60;;
43124;SDS011;49182;50.788;7.318;2023-02-15T13:19:18;21.48;;;10.38;;
43124;SDS011;49182;50.788;7.318;2023-02-15T13:21:51;17.75;;;10.20;;
43124;SDS011;49182;50.788;7.318;2023-02-15T13:24:20;17.77;;;10.15;;
43124;SDS011;49182;50.788;7.318;2023-02-15T13:26:51;16.88;;;10.07;;
43124;SDS011;49182;50.788;7.318;2023-02-15T13:29:38;17.85;;;9.15;;
43124;SDS011;49182;50.788;7.318;2023-02-15T13:32:06;16.98;;;9.80;;
43124;SDS011;49182;50.788;7.318;2023-02-15T13:34:41;19.13;;;9.55;;
43124;SDS011;49182;50.788;7.318;2023-02-15T13:37:10;19.92;;;10.43;;
43124;SDS011;49182;50.788;7.318;2023-02-15T13:39:43;18.27;;;9.38;;
43124;SDS011;49182;50.788;7.318;2023-02-15T13:42:19;17.50;;;9.00;;
43124;SDS011;49182;50.788;7.318;2023-02-15T13:44:54;17.13;;;9.40;;
43124;SDS011;49182;50.788;7.318;2023-02-15T13:47:32;15.98;;;8.93;;
43124;SDS011;49182;50.788;7.318;2023-02-15T13:50:13;16.20;;;9.18;;
43124;SDS011;49182;50.788;7.318;2023-02-15T13:52:53;17.02;;;9.55;;
43124;SDS011;49182;50.788;7.318;2023-02-15T13:55:29;18.02;;;10.27;;
43124;SDS011;49182;50.788;7.318;2023-02-15T14:01:18;15.90;;;9.02;;
43124;SDS011;49182;50.788;7.318;2023-02-15T14:03:58;16.65;;;9.02;;
43124;SDS011;49182;50.788;7.318;2023-02-15T14:09:27;18.63;;;9.45;;
43124;SDS011;49182;50.788;7.318;2023-02-15T14:12:13;18.65;;;9.52;;
43124;SDS011;49182;50.788;7.318;2023-02-15T14:14:59;18.58;;;10.20;;
43124;SDS011;49182;50.788;7.318;2023-02-15T14:17:39;17.17;;;9.88;;
43124;SDS011;49182;50.788;7.318;2023-02-15T14:20:17;16.38;;;9.93;;
43124;SDS011;49182;50.788;7.318;2023-02-15T14:22:49;15.75;;;9.65;;
43124;SDS011;49182;50.788;7.318;2023-02-15T14:25:25;15.43;;;9.10;;
43124;SDS011;49182;50.788;7.318;2023-02-15T14:27:56;19.45;;;9.93;;
43124;SDS011;49182;50.788;7.318;2023-02-15T14:30:30;15.68;;;9.00;;
43124;SDS011;49182;50.788;7.318;2023-02-15T14:33:01;20.10;;;9.18;;
43124;SDS011;49182;50.788;7.318;2023-02-15T14:35:33;16.20;;;9.50;;
43124;SDS011;49182;50.788;7.318;2023-02-15T14:38:02;18.20;;;10.00;;
43124;SDS011;49182;50.788;7.318;2023-02-15T14:40:38;17.98;;;10.07;;
43124;SDS011;49182;50.788;7.318;2023-02-15T14:43:14;19.38;;;10.77;;
43124;SDS011;49182;50.788;7.318;2023-02-15T14:45:49;21.55;;;10.10;;
43124;SDS011;49182;50.788;7.318;2023-02-15T14:48:20;18.52;;;10.63;;
43124;SDS011;49182;50.788;7.318;2023-02-15T14:50:51;15.57;;;9.80;;
43124;SDS011;49182;50.788;7.318;2023-02-15T14:53:32;18.05;;;9.77;;
43124;SDS011;49182;50.788;7.318;2023-02-15T14:56:13;17.60;;;9.77;;
43124;SDS011;49182;50.788;7.318;2023-02-15T14:58:54;18.25;;;9.68;;
43124;SDS011;49182;50.788;7.318;2023-02-15T15:01:26;16.75;;;9.63;;